Time;durP1;ratioP1;P1;durP2;ratioP2;P2;SDS_P1;SDS_P2;PMS_P1;PMS_P2;Temp;Humidity;BMP_temperature;BMP_pressure;BME280_temperature;BME280_humidity;BME280_pressure;Samples;Min_cycle;Max_cycle;Signal;HPM_P1;HPM_P2
2022/03/15 00:01:28;;;;;;;11.90;3.53;;;8.40;99.90;;;;;;5087272;28;20083;-57
2022/03/15 00:03:55;;;;;;;8.85;3.80;;;8.40;99.90;;;;;;5088178;28;20044;-56
2022/03/15 00:06:22;;;;;;;11.27;3.40;;;8.30;99.90;;;;;;5069978;28;20040;-56
2022/03/15 00:08:49;;;;;;;9.93;3.45;;;8.20;99.90;;;;;;5088162;28;20087;-57
2022/03/15 00:11:15;;;;;;;17.42;4.38;;;8.20;99.90;;;;;;5087367;28;20079;-57
2022/03/15 00:13:43;;;;;;;14.98;4.05;;;8.10;99.90;;;;;;5088940;28;20040;-58
2022/03/15 00:16:10;;;;;;;21.45;5.15;;;8.10;99.90;;;;;;5089840;28;20083;-56
2022/03/15 00:18:38;;;;;;;17.35;3.72;;;8.10;99.90;;;;;;5071277;28;20344;-56
2022/03/15 00:21:05;;;;;;;11.48;4.10;;;8.10;99.90;;;;;;5089767;28;20113;-57
2022/03/15 00:23:32;;;;;;;13.60;3.38;;;8.00;99.90;;;;;;5088996;28;20094;-57
2022/03/15 00:26:00;;;;;;;8.35;4.07;;;8.00;99.90;;;;;;5085436;28;20093;-55
2022/03/15 00:28:27;;;;;;;8.30;2.95;;;8.00;99.90;;;;;;5089131;28;20079;-57
2022/03/15 00:30:53;;;;;;;13.25;3.65;;;8.00;99.90;;;;;;5089285;28;20052;-55
2022/03/15 00:33:20;;;;;;;13.25;3.05;;;7.90;99.90;;;;;;5081133;28;20054;-57
2022/03/15 00:35:47;;;;;;;8.63;3.70;;;7.90;99.90;;;;;;5089453;28;20041;-57
2022/03/15 00:38:14;;;;;;;9.70;2.80;;;7.90;99.90;;;;;;5089085;28;20078;-55
2022/03/15 00:40:41;;;;;;;12.90;3.13;;;7.80;99.90;;;;;;5089010;28;20071;-57
2022/03/15 00:43:08;;;;;;;13.75;3.55;;;7.80;99.90;;;;;;5070700;28;20059;-57
2022/03/15 00:45:35;;;;;;;7.13;2.90;;;7.80;99.90;;;;;;5088248;28;20079;-56
2022/03/15 00:48:01;;;;;;;11.48;2.67;;;7.90;99.90;;;;;;5088842;28;20512;-57
2022/03/15 00:50:29;;;;;;;10.60;2.83;;;7.80;99.90;;;;;;5088514;28;20107;-57
2022/03/15 00:52:56;;;;;;;7.78;2.85;;;7.80;99.90;;;;;;5088557;28;20093;-57
2022/03/15 00:55:23;;;;;;;13.50;4.00;;;7.80;99.90;;;;;;5089011;28;20074;-58
2022/03/15 00:57:50;;;;;;;9.00;2.75;;;7.80;99.90;;;;;;5054143;28;20087;-57
2022/03/15 01:00:17;;;;;;;15.88;3.60;;;7.80;99.90;;;;;;5088721;28;20085;-57
2022/03/15 01:02:44;;;;;;;10.90;3.17;;;7.70;99.90;;;;;;5088547;28;20044;-58
2022/03/15 01:05:11;;;;;;;6.18;2.83;;;7.80;99.90;;;;;;5088004;28;20498;-57
2022/03/15 01:07:38;;;;;;;10.85;3.17;;;7.70;99.90;;;;;;5088552;28;20599;-58
2022/03/15 01:10:06;;;;;;;10.68;3.05;;;7.70;99.90;;;;;;5087985;28;20044;-57
2022/03/15 01:12:33;;;;;;;9.45;2.83;;;7.70;99.90;;;;;;5088571;28;20044;-58
2022/03/15 01:15:00;;;;;;;10.27;3.58;;;7.70;99.90;;;;;;5088293;28;20074;-55
2022/03/15 01:17:27;;;;;;;8.50;2.85;;;7.60;99.90;;;;;;5088294;28;20055;-56
2022/03/15 01:19:54;;;;;;;10.77;3.20;;;7.60;99.90;;;;;;5088004;28;20044;-54
2022/03/15 01:22:21;;;;;;;11.00;3.67;;;7.50;99.90;;;;;;5087996;28;20567;-57
2022/03/15 01:24:48;;;;;;;13.15;3.00;;;7.50;99.90;;;;;;5088245;28;20087;-56
2022/03/15 01:27:15;;;;;;;11.20;3.60;;;7.50;99.90;;;;;;5088558;28;20109;-57
2022/03/15 01:29:42;;;;;;;10.75;2.40;;;7.40;99.90;;;;;;5087457;28;20606;-58
2022/03/15 01:32:09;;;;;;;9.35;2.47;;;7.30;99.90;;;;;;5087808;28;20097;-58
2022/03/15 01:34:36;;;;;;;10.93;2.95;;;7.30;99.90;;;;;;5087611;28;20109;-58
2022/03/15 01:37:03;;;;;;;5.50;2.85;;;7.30;99.90;;;;;;5088157;28;20040;-57
2022/03/15 01:39:30;;;;;;;10.07;3.53;;;7.30;99.90;;;;;;5087980;28;20080;-57
2022/03/15 01:41:57;;;;;;;11.73;3.08;;;7.30;99.90;;;;;;5087524;28;20138;-57
2022/03/15 01:44:26;;;;;;;8.00;3.00;;;7.30;99.90;;;;;;5087937;28;20136;-59
2022/03/15 01:46:53;;;;;;;8.05;2.88;;;7.30;99.90;;;;;;5087529;28;20130;-58
2022/03/15 01:49:20;;;;;;;9.48;2.85;;;7.30;99.90;;;;;;4726792;28;10000575;-58
2022/03/15 01:51:47;;;;;;;11.27;2.92;;;7.30;99.90;;;;;;5084612;28;20286;-59
2022/03/15 01:54:15;;;;;;;20.73;4.25;;;7.30;99.90;;;;;;5086736;28;20070;-53
2022/03/15 01:56:42;;;;;;;9.77;3.10;;;7.30;99.90;;;;;;5087550;28;20067;-55
2022/03/15 01:59:10;;;;;;;7.80;3.63;;;7.30;99.90;;;;;;5087695;28;20487;-55
2022/03/15 02:01:37;;;;;;;14.25;3.60;;;7.30;99.90;;;;;;5087033;28;20099;-56
2022/03/15 02:04:05;;;;;;;13.50;3.33;;;7.30;99.90;;;;;;5087638;28;20102;-57
2022/03/15 02:06:35;;;;;;;12.13;4.32;;;7.30;99.90;;;;;;5087279;28;20090;-51
2022/03/15 02:09:11;;;;;;;4.22;2.55;;;7.40;99.90;;;;;;5085704;28;20086;-55
2022/03/15 02:11:39;;;;;;;8.90;3.22;;;7.40;99.90;;;;;;5085929;28;20130;-56
2022/03/15 02:14:05;;;;;;;13.90;4.60;;;7.40;99.90;;;;;;5087157;28;20068;-54
2022/03/15 02:16:32;;;;;;;8.13;3.05;;;7.40;99.90;;;;;;5087220;28;20699;-56
2022/03/15 02:19:00;;;;;;;10.00;3.42;;;7.40;99.90;;;;;;5087072;28;20059;-56
2022/03/15 02:21:26;;;;;;;13.07;3.90;;;7.50;99.90;;;;;;5087128;28;20108;-57
2022/03/15 02:23:54;;;;;;;6.88;3.58;;;7.50;99.90;;;;;;5069639;28;20093;-58
2022/03/15 02:26:21;;;;;;;11.90;3.28;;;7.50;99.90;;;;;;5087182;28;20066;-58
2022/03/15 02:28:47;;;;;;;6.78;3.28;;;7.50;99.90;;;;;;5087164;28;20079;-58
2022/03/15 02:31:15;;;;;;;14.15;3.80;;;7.50;99.90;;;;;;5087265;28;20087;-60
2022/03/15 02:33:42;;;;;;;15.57;3.17;;;7.50;99.90;;;;;;5086618;28;20535;-57
2022/03/15 02:36:09;;;;;;;9.63;3.60;;;7.50;99.90;;;;;;5085326;28;20049;-57
2022/03/15 02:38:36;;;;;;;12.27;4.13;;;7.50;99.90;;;;;;5086731;28;20172;-58
2022/03/15 02:41:03;;;;;;;10.40;3.25;;;7.50;99.90;;;;;;5087208;28;20044;-56
2022/03/15 02:43:29;;;;;;;7.47;3.25;;;7.60;99.90;;;;;;5086421;28;20044;-57
2022/03/15 02:45:57;;;;;;;12.05;3.83;;;7.60;99.90;;;;;;5087287;28;20048;-57
2022/03/15 02:48:24;;;;;;;12.43;3.75;;;7.60;99.90;;;;;;5086671;28;20063;-58
2022/03/15 02:50:50;;;;;;;16.17;3.60;;;7.60;99.90;;;;;;5087013;28;20091;-57
2022/03/15 02:53:17;;;;;;;14.40;4.05;;;7.70;99.90;;;;;;5086459;28;20076;-55
2022/03/15 02:55:46;;;;;;;12.40;4.20;;;7.60;99.90;;;;;;5087256;28;20052;-57
2022/03/15 02:58:14;;;;;;;12.77;3.50;;;7.70;99.90;;;;;;5086733;28;20097;-57
2022/03/15 03:00:41;;;;;;;12.57;3.58;;;7.80;99.90;;;;;;5086783;28;20048;-57
2022/03/15 03:03:08;;;;;;;10.60;3.53;;;7.70;99.90;;;;;;5086186;28;20503;-57
2022/03/15 03:05:35;;;;;;;13.52;4.53;;;7.70;99.90;;;;;;5086799;28;20071;-57
2022/03/15 03:08:05;;;;;;;12.25;2.70;;;7.70;99.90;;;;;;5086439;28;20083;-57
2022/03/15 03:10:32;;;;;;;9.10;2.90;;;7.70;99.90;;;;;;5086565;28;20044;-56
2022/03/15 03:12:59;;;;;;;7.25;2.97;;;7.70;99.90;;;;;;5068234;28;20044;-57
2022/03/15 03:15:26;;;;;;;16.90;3.97;;;7.70;99.90;;;;;;5086665;28;20055;-57
2022/03/15 03:17:53;;;;;;;10.23;3.15;;;7.70;99.90;;;;;;5087017;28;20071;-56
2022/03/15 03:20:21;;;;;;;9.95;3.10;;;7.70;99.90;;;;;;5086440;28;20040;-53
2022/03/15 03:22:50;;;;;;;11.85;4.07;;;7.70;99.90;;;;;;5086619;28;20044;-56
2022/03/15 03:25:18;;;;;;;14.90;3.60;;;7.70;99.90;;;;;;5086872;28;20176;-57
2022/03/15 03:27:46;;;;;;;13.68;3.20;;;7.70;99.90;;;;;;5086567;28;20064;-58
2022/03/15 03:30:13;;;;;;;10.05;3.45;;;7.60;99.90;;;;;;5085588;28;20066;-55
2022/03/15 03:32:41;;;;;;;9.48;2.90;;;7.60;99.90;;;;;;5086700;28;20040;-58
2022/03/15 03:35:08;;;;;;;10.18;2.70;;;7.60;99.90;;;;;;5085915;28;20048;-57
2022/03/15 03:37:34;;;;;;;13.00;3.00;;;7.50;99.90;;;;;;5086957;28;20079;-64
2022/03/15 03:40:07;;;;;;;10.65;3.60;;;7.50;99.90;;;;;;5085974;28;20144;-56
2022/03/15 03:42:35;;;;;;;13.13;3.42;;;7.50;99.90;;;;;;5086365;28;20494;-60
2022/03/15 03:45:02;;;;;;;11.32;4.32;;;7.50;99.90;;;;;;5088683;28;20180;-58
2022/03/15 03:47:29;;;;;;;11.32;3.38;;;7.50;99.90;;;;;;5072096;28;20602;-58
2022/03/15 03:49:56;;;;;;;16.02;4.15;;;7.50;99.90;;;;;;5089823;28;20079;-58
2022/03/15 03:52:23;;;;;;;15.48;3.92;;;7.40;99.90;;;;;;5089849;28;20311;-58
2022/03/15 03:54:49;;;;;;;13.40;4.35;;;7.40;99.90;;;;;;5090141;28;20071;-55
2022/03/15 03:57:16;;;;;;;18.67;4.38;;;7.40;99.90;;;;;;5089452;28;20094;-57
2022/03/15 03:59:43;;;;;;;11.93;3.60;;;7.40;99.90;;;;;;5088988;28;20560;-57
2022/03/15 04:02:12;;;;;;;11.20;4.38;;;7.40;99.90;;;;;;5079143;28;20094;-56
2022/03/15 04:04:39;;;;;;;12.48;3.67;;;7.40;99.90;;;;;;5083450;28;20127;-58
2022/03/15 04:07:11;;;;;;;10.55;3.80;;;7.30;99.90;;;;;;5089435;28;20080;-54
2022/03/15 04:09:38;;;;;;;9.43;4.32;;;7.30;99.90;;;;;;5089640;28;20510;-57
2022/03/15 04:12:06;;;;;;;16.23;3.85;;;7.30;99.90;;;;;;5070937;28;20044;-56
2022/03/15 04:14:36;;;;;;;7.15;3.42;;;7.20;99.90;;;;;;5089144;28;20048;-57
2022/03/15 04:17:03;;;;;;;16.05;4.72;;;7.20;99.90;;;;;;5088030;28;20048;-57
2022/03/15 04:19:31;;;;;;;16.27;5.40;;;7.20;99.90;;;;;;5088915;28;20098;-57
2022/03/15 04:21:58;;;;;;;14.77;3.92;;;7.20;99.90;;;;;;5089276;28;20063;-55
2022/03/15 04:24:25;;;;;;;13.07;4.05;;;7.20;99.90;;;;;;5089296;28;20056;-56
2022/03/15 04:26:52;;;;;;;8.02;3.78;;;7.20;99.90;;;;;;5088573;28;20044;-58
2022/03/15 04:29:20;;;;;;;13.48;3.67;;;7.20;99.90;;;;;;5089313;28;20542;-56
2022/03/15 04:31:47;;;;;;;12.70;4.20;;;7.10;99.90;;;;;;5071220;28;20044;-58
2022/03/15 04:34:14;;;;;;;16.25;5.18;;;7.10;99.90;;;;;;5088948;28;20392;-58
2022/03/15 04:36:41;;;;;;;9.60;3.38;;;7.10;99.90;;;;;;5089205;28;20109;-57
2022/03/15 04:39:08;;;;;;;14.20;4.55;;;7.10;99.90;;;;;;5084810;28;20087;-58
2022/03/15 04:41:35;;;;;;;13.02;4.03;;;7.00;99.90;;;;;;5088872;28;20063;-57
2022/03/15 04:44:02;;;;;;;11.13;4.38;;;7.00;99.90;;;;;;5089069;28;20087;-58
2022/03/15 04:46:29;;;;;;;13.88;3.92;;;7.00;99.90;;;;;;5088854;28;20128;-59
2022/03/15 04:48:56;;;;;;;19.77;4.40;;;6.90;99.90;;;;;;5088308;28;20056;-58
2022/03/15 04:51:24;;;;;;;11.57;4.25;;;6.90;99.90;;;;;;5088275;28;20555;-58
2022/03/15 04:53:51;;;;;;;10.82;3.10;;;6.90;99.90;;;;;;5083285;28;20098;-59
2022/03/15 04:56:18;;;;;;;9.45;3.67;;;6.90;99.90;;;;;;5087651;28;20075;-57
2022/03/15 04:58:45;;;;;;;14.55;3.10;;;6.90;99.90;;;;;;5088781;28;20539;-56
2022/03/15 05:01:12;;;;;;;6.20;4.07;;;6.90;99.90;;;;;;5088633;28;21227;-59
2022/03/15 05:03:39;;;;;;;11.30;3.63;;;6.90;99.90;;;;;;5088151;28;20051;-54
2022/03/15 05:06:06;;;;;;;18.75;3.95;;;6.80;99.90;;;;;;5088797;28;20078;-56
2022/03/15 05:08:32;;;;;;;17.27;3.85;;;6.80;99.90;;;;;;5088942;28;20072;-56
2022/03/15 05:11:08;;;;;;;12.43;3.22;;;6.70;99.90;;;;;;5088322;28;20048;-57
2022/03/15 05:13:46;;;;;;;13.95;3.60;;;6.80;99.90;;;;;;5087997;28;20048;-56
2022/03/15 05:16:17;;;;;;;17.77;3.67;;;6.70;99.90;;;;;;5088175;28;20132;-56
2022/03/15 05:18:50;;;;;;;12.10;3.95;;;6.70;99.90;;;;;;5087589;28;20135;-58
2022/03/15 05:21:17;;;;;;;9.67;3.67;;;6.80;99.90;;;;;;5087867;28;20040;-58
2022/03/15 05:23:44;;;;;;;15.82;3.63;;;6.70;99.90;;;;;;5088143;28;20048;-58
2022/03/15 05:26:11;;;;;;;16.20;3.80;;;6.70;99.90;;;;;;5063529;28;20052;-57
2022/03/15 05:28:38;;;;;;;11.40;3.50;;;6.70;99.90;;;;;;5087627;28;20048;-58
2022/03/15 05:31:05;;;;;;;13.40;3.88;;;6.70;99.90;;;;;;5088347;28;20052;-56
2022/03/15 05:33:32;;;;;;;9.18;3.42;;;6.60;99.90;;;;;;5087167;28;20043;-57
2022/03/15 05:35:59;;;;;;;16.83;3.78;;;6.60;99.90;;;;;;5088307;28;20078;-57
2022/03/15 05:38:26;;;;;;;11.68;3.83;;;6.60;99.90;;;;;;5069877;28;20136;-59
2022/03/15 05:40:53;;;;;;;14.05;4.13;;;6.50;99.90;;;;;;5088319;28;21286;-57
2022/03/15 05:43:31;;;;;;;15.65;4.20;;;6.50;99.90;;;;;;5087238;28;20044;-57
2022/03/15 05:45:58;;;;;;;11.13;4.55;;;6.50;99.90;;;;;;5088058;28;20052;-57
2022/03/15 05:48:25;;;;;;;16.17;3.92;;;6.40;99.90;;;;;;5087270;28;20071;-56
2022/03/15 05:50:51;;;;;;;13.73;4.15;;;6.40;99.90;;;;;;5087978;28;20197;-57
2022/03/15 05:53:18;;;;;;;11.68;4.90;;;6.40;99.90;;;;;;5088086;28;20071;-58
2022/03/15 05:55:45;;;;;;;12.07;4.95;;;6.40;99.90;;;;;;5088051;28;20032;-56
2022/03/15 05:58:14;;;;;;;12.73;3.53;;;6.40;99.90;;;;;;5069959;28;20141;-56
2022/03/15 06:00:42;;;;;;;22.38;5.80;;;6.30;99.90;;;;;;5087605;28;20044;-56
2022/03/15 06:03:11;;;;;;;10.45;4.03;;;6.30;99.90;;;;;;5087529;28;20538;-57
2022/03/15 06:05:38;;;;;;;10.57;4.97;;;6.30;99.90;;;;;;5087372;28;20570;-58
2022/03/15 06:08:06;;;;;;;11.60;4.47;;;6.30;99.90;;;;;;5086444;28;20044;-56
2022/03/15 06:10:32;;;;;;;11.68;3.83;;;6.30;99.90;;;;;;5087488;28;20086;-56
2022/03/15 06:12:59;;;;;;;9.57;3.58;;;6.20;99.90;;;;;;5087647;28;20116;-56
2022/03/15 06:15:26;;;;;;;7.85;3.25;;;6.20;99.90;;;;;;5087138;28;20351;-53
2022/03/15 06:17:56;;;;;;;10.77;4.07;;;6.20;99.90;;;;;;5087832;28;20056;-56
2022/03/15 06:20:24;;;;;;;9.68;3.60;;;6.10;99.90;;;;;;5068617;28;20052;-57
2022/03/15 06:22:51;;;;;;;9.25;4.35;;;6.10;99.90;;;;;;5087510;28;20058;-56
2022/03/15 06:25:18;;;;;;;11.23;3.50;;;6.10;99.90;;;;;;5054645;28;20462;-55
2022/03/15 06:27:47;;;;;;;17.33;3.92;;;6.10;99.90;;;;;;5069717;28;20051;-56
2022/03/15 06:30:17;;;;;;;14.23;5.13;;;6.10;99.90;;;;;;5086814;28;20098;-58
2022/03/15 06:32:44;;;;;;;15.52;5.72;;;6.10;99.90;;;;;;5087429;28;20048;-55
2022/03/15 06:35:12;;;;;;;14.57;4.07;;;6.10;99.90;;;;;;5086616;28;20048;-58
2022/03/15 06:37:45;;;;;;;10.32;4.45;;;6.10;99.90;;;;;;5087052;28;20109;-57
2022/03/15 06:40:14;;;;;;;13.63;4.13;;;6.20;99.90;;;;;;5052760;28;20048;-56
2022/03/15 06:42:40;;;;;;;13.45;5.13;;;6.20;99.90;;;;;;5086684;28;20040;-58
2022/03/15 06:45:08;;;;;;;12.60;4.65;;;6.40;99.90;;;;;;5086838;28;20105;-57
2022/03/15 06:47:35;;;;;;;12.07;5.28;;;6.30;99.90;;;;;;5087303;28;20070;-56
2022/03/15 06:50:04;;;;;;;8.50;4.32;;;6.30;99.90;;;;;;5086559;28;20055;-57
2022/03/15 06:52:30;;;;;;;17.60;5.03;;;6.40;99.90;;;;;;5087094;28;20526;-57
2022/03/15 06:54:57;;;;;;;11.25;5.88;;;6.40;99.90;;;;;;5086773;28;20079;-56
2022/03/15 06:57:24;;;;;;;16.30;5.07;;;6.50;99.90;;;;;;5087353;28;20481;-59
2022/03/15 06:59:51;;;;;;;14.18;6.85;;;6.50;99.90;;;;;;5069037;28;20109;-55
2022/03/15 07:02:18;;;;;;;30.45;5.78;;;6.50;99.90;;;;;;5086580;28;20072;-55
2022/03/15 07:04:45;;;;;;;11.60;5.47;;;6.50;99.90;;;;;;5086490;28;20036;-56
2022/03/15 07:07:12;;;;;;;8.40;4.25;;;6.50;99.90;;;;;;5085902;28;20142;-56
2022/03/15 07:09:38;;;;;;;15.50;5.15;;;6.50;99.90;;;;;;5086364;28;20093;-58
2022/03/15 07:12:06;;;;;;;13.80;5.03;;;6.40;99.90;;;;;;5085606;28;20086;-58
2022/03/15 07:14:32;;;;;;;15.80;6.50;;;6.40;99.90;;;;;;5068835;28;20079;-55
2022/03/15 07:16:59;;;;;;;21.15;6.57;;;6.50;99.90;;;;;;5086688;28;20091;-57
2022/03/15 07:19:27;;;;;;;14.07;6.50;;;6.50;99.90;;;;;;5088139;28;20040;-57
2022/03/15 07:21:55;;;;;;;14.32;6.43;;;6.60;99.90;;;;;;5090359;28;20055;-57
2022/03/15 07:24:22;;;;;;;15.52;6.60;;;6.60;99.90;;;;;;5072048;28;20155;-57
2022/03/15 07:26:49;;;;;;;14.88;6.15;;;6.70;99.90;;;;;;5089833;28;20044;-56
2022/03/15 07:29:15;;;;;;;19.73;7.05;;;6.70;99.90;;;;;;5089687;28;20083;-56
2022/03/15 07:31:42;;;;;;;17.13;5.65;;;6.70;99.90;;;;;;5088606;28;20044;-56
2022/03/15 07:34:09;;;;;;;17.63;6.35;;;6.70;99.90;;;;;;5088901;28;20453;-54
2022/03/15 07:36:36;;;;;;;18.15;6.93;;;6.70;99.90;;;;;;5088991;28;20060;-59
2022/03/15 07:39:04;;;;;;;20.67;6.28;;;6.70;99.90;;;;;;5088811;28;20040;-58
2022/03/15 07:41:34;;;;;;;24.55;7.00;;;6.80;99.90;;;;;;5088475;28;20516;-57
2022/03/15 07:44:01;;;;;;;23.75;6.78;;;6.90;99.90;;;;;;5088305;28;20044;-57
2022/03/15 07:46:28;;;;;;;27.83;7.22;;;7.00;99.90;;;;;;5089139;28;20407;-59
2022/03/15 07:48:55;;;;;;;16.25;6.85;;;7.00;99.90;;;;;;5088932;28;20048;-55
2022/03/15 07:51:21;;;;;;;12.43;6.07;;;7.10;99.90;;;;;;5088368;28;20044;-55
2022/03/15 07:53:54;;;;;;;19.83;7.03;;;7.20;99.90;;;;;;5087538;28;20048;-56
2022/03/15 07:56:21;;;;;;;22.63;7.00;;;7.20;99.90;;;;;;5087543;28;20044;-56
2022/03/15 07:58:48;;;;;;;20.63;6.97;;;7.30;99.90;;;;;;5087118;28;20628;-56
2022/03/15 08:01:15;;;;;;;20.10;7.18;;;7.30;99.90;;;;;;5087159;28;20044;-56
2022/03/15 08:03:42;;;;;;;21.05;6.38;;;7.40;99.90;;;;;;5087319;28;20055;-57
2022/03/15 08:06:09;;;;;;;20.92;8.02;;;7.50;99.90;;;;;;5086706;28;20068;-57
2022/03/15 08:08:36;;;;;;;26.23;6.85;;;7.60;99.90;;;;;;5087233;28;20093;-59
2022/03/15 08:11:06;;;;;;;20.90;7.15;;;7.60;99.90;;;;;;5088226;28;20093;-55
2022/03/15 08:13:34;;;;;;;23.48;7.47;;;7.70;99.90;;;;;;5080734;28;20050;-56
2022/03/15 08:16:04;;;;;;;21.77;6.15;;;7.80;99.90;;;;;;5089579;28;20135;-57
2022/03/15 08:18:31;;;;;;;18.35;8.05;;;7.80;99.90;;;;;;5088909;28;20371;-57
2022/03/15 08:20:59;;;;;;;21.33;7.68;;;7.90;99.90;;;;;;5071521;28;20117;-58
2022/03/15 08:23:27;;;;;;;16.92;7.85;;;7.90;99.90;;;;;;5070932;28;20547;-58
2022/03/15 08:25:55;;;;;;;20.83;7.05;;;8.00;99.90;;;;;;5082948;28;20085;-52
2022/03/15 08:28:24;;;;;;;15.52;7.20;;;8.10;99.90;;;;;;5088345;28;20044;-53
2022/03/15 08:30:54;;;;;;;21.20;8.13;;;8.20;99.90;;;;;;5087666;28;20052;-56
2022/03/15 08:33:21;;;;;;;24.08;7.35;;;8.20;99.90;;;;;;5088753;28;20040;-55
2022/03/15 08:35:49;;;;;;;19.90;7.43;;;8.30;99.90;;;;;;5088874;28;20076;-55
2022/03/15 08:38:16;;;;;;;22.45;6.50;;;8.30;99.90;;;;;;5088600;28;20052;-54
2022/03/15 08:40:43;;;;;;;21.33;7.45;;;8.50;99.90;;;;;;5070375;28;20557;-57
2022/03/15 08:43:10;;;;;;;14.40;7.35;;;8.50;99.90;;;;;;5088903;28;20077;-57
2022/03/15 08:45:37;;;;;;;12.55;6.95;;;8.60;99.90;;;;;;5087882;28;20047;-56
2022/03/15 08:48:04;;;;;;;16.55;6.80;;;8.60;99.90;;;;;;5088722;28;20044;-55
2022/03/15 08:50:31;;;;;;;17.23;6.65;;;8.70;99.90;;;;;;5088429;28;20286;-56
2022/03/15 08:52:58;;;;;;;32.10;9.50;;;8.80;99.90;;;;;;5071901;28;20130;-54
2022/03/15 08:55:26;;;;;;;22.27;7.30;;;8.90;99.90;;;;;;5092354;28;20044;-52
2022/03/15 08:57:53;;;;;;;20.38;7.97;;;9.00;99.90;;;;;;5088320;28;20059;-55
2022/03/15 09:00:20;;;;;;;28.88;8.90;;;9.10;99.90;;;;;;5088378;28;20048;-57
2022/03/15 09:02:47;;;;;;;18.77;7.90;;;9.20;99.90;;;;;;5088266;28;20055;-56
2022/03/15 09:05:18;;;;;;;17.67;6.30;;;9.30;99.90;;;;;;5087677;28;20044;-53
2022/03/15 09:07:50;;;;;;;22.38;6.65;;;9.40;99.90;;;;;;5088007;28;20076;-53
2022/03/15 09:10:20;;;;;;;20.45;7.70;;;9.50;99.90;;;;;;5069811;28;20492;-53
2022/03/15 09:12:47;;;;;;;27.92;8.07;;;9.60;99.90;;;;;;5087704;28;20371;-55
2022/03/15 09:15:14;;;;;;;16.70;6.30;;;9.90;99.90;;;;;;5087836;28;20565;-55
2022/03/15 09:17:41;;;;;;;20.10;5.82;;;10.40;99.90;;;;;;5069815;28;20132;-53
2022/03/15 09:20:22;;;;;;;17.08;5.78;;;10.80;99.90;;;;;;5081799;28;20052;-57
2022/03/15 09:22:49;;;;;;;18.58;5.03;;;11.30;99.90;;;;;;5085189;28;20097;-55
2022/03/15 09:25:17;;;;;;;16.25;6.22;;;11.70;99.90;;;;;;5087422;28;20086;-54
2022/03/15 09:27:44;;;;;;;23.63;5.50;;;12.00;99.90;;;;;;5088093;28;20510;-55
2022/03/15 09:30:11;;;;;;;11.93;4.72;;;12.30;99.90;;;;;;5087396;28;20110;-56
2022/03/15 09:32:38;;;;;;;18.23;3.83;;;12.60;99.90;;;;;;5087975;28;20078;-58
2022/03/15 09:35:06;;;;;;;9.13;3.35;;;12.80;99.90;;;;;;5087535;28;20277;-52
2022/03/15 09:37:33;;;;;;;12.48;4.97;;;13.10;99.90;;;;;;5086725;28;20052;-52
2022/03/15 09:40:06;;;;;;;12.13;3.75;;;13.20;99.90;;;;;;5070896;28;20491;-58
2022/03/15 09:42:32;;;;;;;15.02;4.25;;;13.10;99.90;;;;;;5053466;28;20048;-55
2022/03/15 09:44:59;;;;;;;24.05;4.25;;;13.00;99.90;;;;;;5053285;28;20483;-57
2022/03/15 09:47:30;;;;;;;12.23;3.90;;;12.80;99.90;;;;;;5069666;28;20522;-53
2022/03/15 09:49:59;;;;;;;13.20;3.47;;;12.70;99.90;;;;;;5087711;28;20407;-53
2022/03/15 09:52:27;;;;;;;12.70;3.10;;;12.60;99.90;;;;;;5071097;28;20048;-54
2022/03/15 09:54:56;;;;;;;11.90;3.22;;;12.60;99.90;;;;;;5088205;28;20052;-54
2022/03/15 09:57:22;;;;;;;8.68;2.50;;;12.60;99.90;;;;;;5087272;28;20407;-52
2022/03/15 09:59:50;;;;;;;13.80;3.05;;;12.60;99.90;;;;;;5069763;28;20125;-56
2022/03/15 10:02:17;;;;;;;12.90;3.03;;;12.60;99.90;;;;;;5087178;28;20048;-55
2022/03/15 10:04:44;;;;;;;16.58;2.53;;;12.60;99.60;;;;;;5068889;28;20052;-57
2022/03/15 10:07:11;;;;;;;11.60;2.58;;;12.60;99.90;;;;;;5087075;28;20076;-50
2022/03/15 10:09:38;;;;;;;11.02;2.42;;;12.60;99.30;;;;;;5087583;28;20560;-56
2022/03/15 10:12:05;;;;;;;8.45;2.35;;;12.60;99.40;;;;;;5086957;28;20044;-58
2022/03/15 10:14:46;;;;;;;11.32;2.85;;;12.60;99.20;;;;;;5090220;28;20074;-57
2022/03/15 10:17:14;;;;;;;10.73;2.67;;;12.60;98.20;;;;;;5091620;28;20052;-58
2022/03/15 10:20:01;;;;;;;22.00;2.85;;;12.70;99.40;;;;;;5087086;28;20055;-56
2022/03/15 10:22:53;;;;;;;6.55;2.45;;;12.70;98.70;;;;;;5086478;28;20087;-56
2022/03/15 10:25:22;;;;;;;10.38;2.28;;;12.70;98.50;;;;;;5086465;28;20052;-55
2022/03/15 10:27:57;;;;;;;8.82;1.98;;;12.70;99.30;;;;;;5061052;28;20564;-57
2022/03/15 10:30:25;;;;;;;11.15;3.00;;;12.70;98.00;;;;;;5087002;28;20095;-53
2022/03/15 10:32:52;;;;;;;10.18;2.28;;;12.70;97.50;;;;;;5086370;28;20094;-56
2022/03/15 10:35:20;;;;;;;8.63;1.75;;;12.80;98.70;;;;;;5086845;28;20071;-55
2022/03/15 10:37:48;;;;;;;11.85;2.03;;;12.80;98.70;;;;;;5086395;28;20408;-56
2022/03/15 10:40:15;;;;;;;29.08;3.38;;;12.80;98.50;;;;;;5087173;28;20479;-54
2022/03/15 10:42:43;;;;;;;8.60;2.28;;;12.90;98.50;;;;;;5086660;28;20078;-57
2022/03/15 10:45:17;;;;;;;12.50;2.28;;;12.90;98.20;;;;;;5086307;28;20040;-55
2022/03/15 10:47:51;;;;;;;10.38;2.50;;;12.90;96.40;;;;;;5083654;28;20050;-55
2022/03/15 10:50:18;;;;;;;5.72;2.42;;;12.90;97.60;;;;;;5075354;28;20040;-56
2022/03/15 10:52:45;;;;;;;10.75;2.55;;;12.90;97.40;;;;;;5086552;28;20048;-57
2022/03/15 10:55:15;;;;;;;10.30;2.00;;;13.00;97.60;;;;;;5085987;28;20097;-56
2022/03/15 10:57:54;;;;;;;6.95;2.15;;;13.10;97.50;;;;;;5086691;28;20044;-56
2022/03/15 11:00:32;;;;;;;12.07;2.80;;;13.10;96.10;;;;;;5086269;28;20058;-55
2022/03/15 11:02:59;;;;;;;14.43;3.00;;;13.20;97.10;;;;;;5086723;28;20047;-54
2022/03/15 11:05:27;;;;;;;13.80;4.85;;;13.20;97.00;;;;;;5086479;28;20059;-56
2022/03/15 11:07:55;;;;;;;10.07;2.15;;;13.30;97.20;;;;;;5086985;28;20116;-55
2022/03/15 11:10:22;;;;;;;7.47;2.08;;;13.40;97.10;;;;;;5086205;28;20087;-54
2022/03/15 11:13:07;;;;;;;6.93;1.90;;;13.50;96.30;;;;;;5087022;28;20105;-55
2022/03/15 11:15:34;;;;;;;12.50;2.10;;;13.50;93.50;;;;;;5086200;28;20044;-54
2022/03/15 11:18:05;;;;;;;12.45;2.50;;;13.60;95.80;;;;;;5068549;28;20491;-53
2022/03/15 11:20:35;;;;;;;8.63;2.13;;;13.70;95.90;;;;;;5086345;28;20071;-53
2022/03/15 11:23:04;;;;;;;7.13;2.10;;;13.70;95.70;;;;;;5086089;28;20044;-55
2022/03/15 11:25:37;;;;;;;7.78;2.22;;;13.80;95.80;;;;;;5086159;28;20155;-57
2022/03/15 11:28:09;;;;;;;21.55;4.40;;;13.80;95.10;;;;;;5085923;28;20055;-54
2022/03/15 11:30:36;;;;;;;12.30;2.38;;;13.80;95.30;;;;;;5086006;28;20098;-56
2022/03/15 11:33:03;;;;;;;13.50;2.95;;;13.80;95.70;;;;;;5086044;28;20097;-54
2022/03/15 11:35:32;;;;;;;15.25;2.70;;;13.80;95.40;;;;;;5085654;28;20116;-52
2022/03/15 11:37:59;;;;;;;14.30;2.20;;;13.70;95.40;;;;;;5086340;28;20109;-55
2022/03/15 11:40:27;;;;;;;12.40;2.45;;;13.70;94.60;;;;;;5085790;28;20040;-55
2022/03/15 11:43:14;;;;;;;9.95;3.00;;;13.70;95.20;;;;;;5087560;28;20078;-54
2022/03/15 11:45:48;;;;;;;6.93;2.03;;;13.70;94.70;;;;;;5063797;28;20048;-56
2022/03/15 11:48:42;;;;;;;8.77;2.15;;;13.80;94.40;;;;;;5068763;28;20139;-55
2022/03/15 11:51:34;;;;;;;12.48;2.30;;;13.90;93.90;;;;;;5063112;28;20080;-54
2022/03/15 11:54:06;;;;;;;16.90;4.05;;;14.00;92.60;;;;;;5052895;28;20123;-56
2022/03/15 11:56:48;;;;;;;9.98;2.50;;;14.10;95.00;;;;;;5085986;28;20047;-55
2022/03/15 11:59:15;;;;;;;6.68;2.22;;;14.20;93.50;;;;;;5086382;28;20047;-56
2022/03/15 12:01:47;;;;;;;14.35;3.30;;;14.20;94.30;;;;;;5085867;28;20048;-56
2022/03/15 12:04:22;;;;;;;13.05;2.30;;;14.30;94.20;;;;;;5086135;28;20487;-55
2022/03/15 12:06:56;;;;;;;8.90;1.95;;;14.30;94.30;;;;;;5088189;28;20377;-57
2022/03/15 12:09:25;;;;;;;11.73;3.85;;;14.40;93.70;;;;;;5087923;28;20486;-56
2022/03/15 12:12:09;;;;;;;15.98;2.47;;;14.40;94.20;;;;;;5071616;28;20059;-57
2022/03/15 12:14:40;;;;;;;10.93;2.45;;;14.50;91.50;;;;;;5088304;28;20127;-55
2022/03/15 12:17:07;;;;;;;14.05;2.63;;;14.50;93.90;;;;;;5089880;28;20070;-54
2022/03/15 12:20:02;;;;;;;9.45;2.65;;;14.50;94.10;;;;;;5089615;28;20143;-55
2022/03/15 12:22:36;;;;;;;10.38;2.70;;;14.50;91.70;;;;;;5068263;28;20128;-55
2022/03/15 12:25:17;;;;;;;10.18;2.08;;;14.60;93.50;;;;;;5089489;28;20485;-55
2022/03/15 12:28:01;;;;;;;9.35;1.73;;;14.60;93.50;;;;;;5089125;28;20117;-56
2022/03/15 12:30:36;;;;;;;13.57;2.30;;;14.70;91.00;;;;;;5087010;28;20067;-56
2022/03/15 12:33:03;;;;;;;7.85;1.90;;;14.70;92.90;;;;;;5088235;28;20422;-55
2022/03/15 12:35:30;;;;;;;7.22;1.92;;;14.70;92.60;;;;;;5089427;28;20090;-58
2022/03/15 12:38:08;;;;;;;10.68;1.90;;;14.70;92.60;;;;;;5089064;28;20415;-54
2022/03/15 12:40:38;;;;;;;11.70;3.55;;;14.70;90.10;;;;;;5071750;28;20048;-54
2022/03/15 12:43:05;;;;;;;10.27;2.38;;;14.70;92.40;;;;;;5070765;28;20056;-53
2022/03/15 12:45:33;;;;;;;13.73;2.53;;;14.70;92.60;;;;;;5089703;28;20052;-53
2022/03/15 12:48:05;;;;;;;10.43;2.47;;;14.70;92.70;;;;;;5071172;28;20048;-56
2022/03/15 12:50:54;;;;;;;9.77;1.80;;;14.80;92.50;;;;;;5087798;28;20059;-55
2022/03/15 12:53:23;;;;;;;8.80;2.08;;;14.80;90.80;;;;;;5088364;28;20055;-56